createdAt,value
2023-04-02T00:00:32.259Z,2.93
2023-04-02T00:01:32.267Z,3.01
2023-04-02T00:02:32.433Z,2.90
2023-04-02T00:03:32.347Z,2.97
2023-04-02T00:04:32.293Z,3.03
2023-04-02T00:05:32.349Z,2.98
2023-04-02T00:06:32.318Z,2.93
2023-04-02T00:07:32.321Z,2.93
2023-04-02T00:08:32.329Z,3.05
2023-04-02T00:09:32.339Z,2.97
2023-04-02T00:10:32.347Z,3.05
2023-04-02T00:11:32.366Z,2.88
2023-04-02T00:12:32.369Z,2.93
2023-04-02T00:13:32.388Z,2.90
2023-04-02T00:14:32.386Z,3.00
2023-04-02T00:15:32.579Z,2.93
2023-04-02T00:16:32.459Z,3.05
2023-04-02T00:17:32.413Z,3.06
2023-04-02T00:18:32.454Z,2.95
2023-04-02T00:19:32.428Z,2.97
2023-04-02T00:20:32.440Z,2.90
2023-04-02T00:21:32.454Z,2.95
2023-04-02T00:22:32.458Z,2.88
2023-04-02T00:23:32.486Z,2.98
2023-04-02T00:24:32.478Z,2.98
2023-04-02T00:25:32.650Z,2.90
2023-04-02T00:26:32.496Z,2.93
2023-04-02T00:27:32.505Z,2.97
2023-04-02T00:28:32.513Z,2.95
2023-04-02T00:29:32.529Z,2.98
2023-04-02T00:30:32.528Z,2.91
2023-04-02T00:31:32.580Z,2.83
2023-04-02T00:32:32.581Z,2.87
2023-04-02T00:33:32.556Z,2.85
2023-04-02T00:34:32.567Z,2.82
2023-04-02T00:35:32.729Z,2.82
2023-04-02T00:36:32.587Z,2.85
2023-04-02T00:37:32.595Z,2.87
2023-04-02T00:38:32.601Z,2.90
2023-04-02T00:39:32.610Z,2.82
2023-04-02T00:40:32.620Z,2.83
2023-04-02T00:41:32.630Z,2.83
2023-04-02T00:42:32.635Z,2.90
2023-04-02T00:43:32.646Z,2.87
2023-04-02T00:44:32.655Z,2.85
2023-04-02T00:45:32.878Z,2.69
2023-04-02T00:46:32.708Z,2.77
2023-04-02T00:47:32.713Z,2.79
2023-04-02T00:48:32.711Z,2.77
2023-04-02T00:49:32.707Z,2.72
2023-04-02T00:50:32.706Z,2.75
2023-04-02T00:51:32.720Z,2.75
2023-04-02T00:52:32.727Z,2.76
2023-04-02T00:53:32.737Z,2.76
2023-04-02T00:54:32.759Z,2.75
2023-04-02T00:55:33.016Z,2.68
2023-04-02T00:56:32.766Z,2.73
2023-04-02T00:57:32.882Z,2.79
2023-04-02T00:58:32.778Z,2.69
2023-04-02T00:59:32.792Z,2.73
2023-04-02T01:00:32.796Z,2.76
2023-04-02T01:01:32.813Z,2.75
2023-04-02T01:02:32.964Z,2.77
2023-04-02T01:03:32.962Z,2.73
2023-04-02T01:04:32.833Z,2.75
2023-04-02T01:05:33.126Z,2.73
2023-04-02T01:06:32.852Z,2.76
2023-04-02T01:07:32.857Z,2.69
2023-04-02T01:08:32.866Z,2.76
2023-04-02T01:09:32.879Z,2.69
2023-04-02T01:10:32.910Z,2.75
2023-04-02T01:11:32.895Z,2.72
2023-04-02T01:12:32.904Z,2.77
2023-04-02T01:13:32.911Z,2.72
2023-04-02T01:14:32.917Z,2.72
2023-04-02T01:15:33.135Z,2.72
2023-04-02T01:16:33.049Z,2.77
2023-04-02T01:17:32.976Z,2.72
2023-04-02T01:18:32.955Z,2.76
2023-04-02T01:19:32.962Z,2.77
2023-04-02T01:20:32.979Z,2.76
2023-04-02T01:21:32.983Z,2.69
2023-04-02T01:22:32.989Z,2.69
2023-04-02T01:23:32.997Z,2.72
2023-04-02T01:24:33.006Z,2.75
2023-04-02T01:25:33.253Z,2.70
2023-04-02T01:26:33.028Z,2.77
2023-04-02T01:27:33.043Z,2.72
2023-04-02T01:28:33.042Z,2.72
2023-04-02T01:29:33.053Z,2.70
2023-04-02T01:30:33.058Z,2.76
2023-04-02T01:31:33.096Z,2.65
2023-04-02T01:32:33.094Z,2.76
2023-04-02T01:33:33.086Z,2.77
2023-04-02T01:34:33.094Z,2.73
2023-04-02T01:35:33.314Z,2.75
2023-04-02T01:36:33.113Z,2.70
2023-04-02T01:37:33.121Z,2.64
2023-04-02T01:38:33.132Z,2.72
2023-04-02T01:39:33.139Z,2.73
2023-04-02T01:40:33.159Z,2.77
2023-04-02T01:41:33.156Z,2.70
2023-04-02T01:42:33.165Z,2.73
2023-04-02T01:43:33.174Z,2.72
2023-04-02T01:44:33.180Z,2.73
2023-04-02T01:45:33.454Z,2.73
2023-04-02T01:46:33.230Z,2.68
2023-04-02T01:47:33.248Z,2.68
2023-04-02T01:48:33.218Z,2.70
2023-04-02T01:49:33.230Z,2.72
2023-04-02T01:50:33.236Z,2.70
2023-04-02T01:51:33.266Z,2.73
2023-04-02T01:52:33.253Z,2.70
2023-04-02T01:53:33.259Z,2.72
2023-04-02T01:54:33.270Z,2.72
2023-04-02T01:55:33.526Z,2.62
2023-04-02T01:56:33.293Z,2.70
2023-04-02T01:57:33.419Z,2.73
2023-04-02T01:58:33.304Z,2.72
2023-04-02T01:59:33.355Z,2.69
2023-04-02T02:00:33.365Z,2.76
2023-04-02T02:01:33.336Z,2.69
2023-04-02T02:02:33.454Z,2.58
2023-04-02T02:03:33.348Z,2.70
2023-04-02T02:04:33.356Z,2.70
2023-04-02T02:05:33.570Z,2.73
2023-04-02T02:06:33.374Z,2.70
2023-04-02T02:07:33.386Z,2.73
2023-04-02T02:08:33.395Z,2.72
2023-04-02T02:09:33.402Z,2.72
2023-04-02T02:10:33.412Z,2.68
2023-04-02T02:11:33.427Z,2.70
2023-04-02T02:12:33.432Z,2.69
2023-04-02T02:13:33.453Z,2.73
2023-04-02T02:14:33.449Z,2.79
2023-04-02T02:15:33.664Z,2.69
2023-04-02T02:16:33.486Z,2.64
2023-04-02T02:17:33.474Z,2.70
2023-04-02T02:18:33.508Z,2.73
2023-04-02T02:19:33.500Z,2.77
2023-04-02T02:20:33.516Z,2.70
2023-04-02T02:21:33.538Z,2.58
2023-04-02T02:22:33.539Z,2.72
2023-04-02T02:23:33.573Z,2.76
2023-04-02T02:24:33.553Z,2.68
2023-04-02T02:25:33.818Z,2.65
2023-04-02T02:26:33.577Z,2.72
2023-04-02T02:27:33.596Z,2.68
2023-04-02T02:28:33.597Z,2.68
2023-04-02T02:29:33.597Z,2.59
2023-04-02T02:30:33.621Z,2.58
2023-04-02T02:31:33.700Z,2.62
2023-04-02T02:32:33.633Z,2.62
2023-04-02T02:33:33.650Z,2.62
2023-04-02T02:34:33.629Z,2.61
2023-04-02T02:35:34.006Z,2.65
2023-04-02T02:36:33.673Z,2.57
2023-04-02T02:37:33.655Z,2.55
2023-04-02T02:38:33.666Z,2.50
2023-04-02T02:39:33.675Z,2.59
2023-04-02T02:40:33.684Z,2.51
2023-04-02T02:41:33.693Z,2.52
2023-04-02T02:42:33.708Z,2.52
2023-04-02T02:43:33.707Z,2.57
2023-04-02T02:44:33.717Z,2.47
2023-04-02T02:45:34.061Z,2.51
2023-04-02T02:46:33.740Z,2.50
2023-04-02T02:47:33.768Z,2.47
2023-04-02T02:48:33.754Z,2.51
2023-04-02T02:49:33.770Z,2.36
2023-04-02T02:50:33.774Z,2.43
2023-04-02T02:51:33.780Z,2.40
2023-04-02T02:52:33.783Z,2.54
2023-04-02T02:53:33.796Z,2.39
2023-04-02T02:54:33.800Z,2.40
2023-04-02T02:55:34.071Z,2.47
2023-04-02T02:56:33.821Z,2.44
2023-04-02T02:57:33.883Z,2.39
2023-04-02T02:58:33.833Z,2.37
2023-04-02T02:59:33.842Z,2.41
2023-04-02T03:00:33.855Z,2.40
2023-04-02T03:01:33.917Z,2.41
2023-04-02T03:02:33.949Z,2.40
2023-04-02T03:03:34.197Z,2.34
2023-04-02T03:04:33.888Z,2.37
2023-04-02T03:05:34.088Z,2.43
2023-04-02T03:06:33.920Z,2.36
2023-04-02T03:07:33.913Z,2.34
2023-04-02T03:08:33.938Z,2.39
2023-04-02T03:09:33.927Z,2.33
2023-04-02T03:10:33.937Z,2.32
2023-04-02T03:11:33.947Z,2.37
2023-04-02T03:12:33.965Z,2.28
2023-04-02T03:13:33.963Z,2.37
2023-04-02T03:14:33.971Z,2.33
2023-04-02T03:15:34.254Z,2.26
2023-04-02T03:16:34.004Z,2.36
2023-04-02T03:17:34.024Z,2.33
2023-04-02T03:18:34.021Z,2.28
2023-04-02T03:19:34.014Z,2.32
2023-04-02T03:20:34.028Z,2.30
2023-04-02T03:21:34.031Z,2.37
2023-04-02T03:22:34.038Z,2.33
2023-04-02T03:23:34.050Z,2.39
2023-04-02T03:24:34.060Z,2.28
2023-04-02T03:25:34.189Z,2.32
2023-04-02T03:26:34.084Z,2.28
2023-04-02T03:27:34.088Z,2.33
2023-04-02T03:28:34.094Z,2.25
2023-04-02T03:29:34.101Z,2.32
2023-04-02T03:30:34.107Z,2.32
2023-04-02T03:31:34.160Z,2.28
2023-04-02T03:32:34.176Z,2.39
2023-04-02T03:33:34.150Z,2.32
2023-04-02T03:34:34.147Z,2.32
2023-04-02T03:35:34.384Z,2.37
2023-04-02T03:36:34.161Z,2.43
2023-04-02T03:37:34.169Z,2.36
2023-04-02T03:38:34.178Z,2.44
2023-04-02T03:39:34.187Z,2.39
2023-04-02T03:40:34.197Z,2.44
2023-04-02T03:41:34.206Z,2.44
2023-04-02T03:42:34.213Z,2.40
2023-04-02T03:43:34.222Z,2.39
2023-04-02T03:44:34.233Z,2.39
2023-04-02T03:45:34.509Z,2.41
2023-04-02T03:46:34.305Z,2.43
2023-04-02T03:47:34.306Z,2.44
2023-04-02T03:48:34.274Z,2.44
2023-04-02T03:49:34.291Z,2.39
2023-04-02T03:50:34.290Z,2.44
2023-04-02T03:51:34.292Z,2.41
2023-04-02T03:52:34.304Z,2.40
2023-04-02T03:53:34.310Z,2.46
2023-04-02T03:54:34.316Z,2.44
2023-04-02T03:55:34.573Z,2.43
2023-04-02T03:56:34.361Z,2.55
2023-04-02T03:57:34.360Z,2.41
2023-04-02T03:58:34.353Z,2.37
2023-04-02T03:59:34.361Z,2.54
2023-04-02T04:00:34.372Z,2.51
2023-04-02T04:01:34.476Z,2.54
2023-04-02T04:02:34.466Z,2.55
2023-04-02T04:03:34.394Z,2.46
2023-04-02T04:04:34.475Z,2.55
2023-04-02T04:05:34.532Z,2.46
2023-04-02T04:06:34.457Z,2.51
2023-04-02T04:07:34.433Z,2.50
2023-04-02T04:08:34.440Z,2.52
2023-04-02T04:09:34.445Z,2.52
2023-04-02T04:10:34.466Z,2.47
2023-04-02T04:11:34.463Z,2.47
2023-04-02T04:12:34.475Z,2.51
2023-04-02T04:13:34.485Z,2.50
2023-04-02T04:14:34.491Z,2.54
2023-04-02T04:15:34.787Z,2.52
2023-04-02T04:16:34.550Z,2.52
2023-04-02T04:17:34.585Z,2.47
2023-04-02T04:18:34.527Z,2.43
2023-04-02T04:19:34.537Z,2.50
2023-04-02T04:20:34.548Z,2.44
2023-04-02T04:21:34.552Z,2.47
2023-04-02T04:22:34.563Z,2.47
2023-04-02T04:23:34.568Z,2.52
2023-04-02T04:24:34.583Z,2.50
2023-04-02T04:25:34.804Z,2.54
2023-04-02T04:26:34.598Z,2.52
2023-04-02T04:27:34.615Z,2.51
2023-04-02T04:28:34.623Z,2.43
2023-04-02T04:29:34.625Z,2.47
2023-04-02T04:30:34.632Z,2.52
2023-04-02T04:31:34.661Z,2.51
2023-04-02T04:32:34.688Z,2.52
2023-04-02T04:33:34.655Z,2.52
2023-04-02T04:34:34.665Z,2.55
2023-04-02T04:35:34.825Z,2.55
2023-04-02T04:36:34.687Z,2.54
2023-04-02T04:37:34.695Z,2.54
2023-04-02T04:38:34.703Z,2.52
2023-04-02T04:39:34.803Z,2.52
2023-04-02T04:40:34.725Z,2.52
2023-04-02T04:41:34.749Z,2.51
2023-04-02T04:42:34.739Z,2.54
2023-04-02T04:43:34.746Z,2.52
2023-04-02T04:44:34.754Z,2.52
2023-04-02T04:45:34.963Z,2.50
2023-04-02T04:46:34.771Z,2.55
2023-04-02T04:47:34.802Z,2.47
2023-04-02T04:48:35.305Z,2.52
2023-04-02T04:49:34.802Z,2.55
2023-04-02T04:50:34.808Z,2.51
2023-04-02T04:51:34.819Z,2.52
2023-04-02T04:52:34.832Z,2.55
2023-04-02T04:53:34.836Z,2.52
2023-04-02T04:54:34.842Z,2.65
2023-04-02T04:55:35.145Z,2.59
2023-04-02T04:56:34.863Z,2.54
2023-04-02T04:57:34.881Z,2.58
2023-04-02T04:58:34.878Z,2.54
2023-04-02T04:59:34.889Z,2.55
2023-04-02T05:00:34.893Z,2.52
2023-04-02T05:01:34.922Z,2.64
2023-04-02T05:02:34.980Z,2.59
2023-04-02T05:03:34.926Z,2.52
2023-04-02T05:04:34.952Z,2.61
2023-04-02T05:05:35.063Z,2.57
2023-04-02T05:06:34.948Z,2.65
2023-04-02T05:07:34.960Z,2.62
2023-04-02T05:08:34.969Z,2.61
2023-04-02T05:09:34.970Z,2.58
2023-04-02T05:10:34.978Z,2.69
2023-04-02T05:11:34.988Z,2.58
2023-04-02T05:12:35.006Z,2.70
2023-04-02T05:13:35.007Z,2.72
2023-04-02T05:14:35.014Z,2.70
2023-04-02T05:15:35.367Z,2.59
2023-04-02T05:16:35.096Z,2.70
2023-04-02T05:17:35.093Z,2.70
2023-04-02T05:18:35.048Z,2.68
2023-04-02T05:19:35.061Z,2.72
2023-04-02T05:20:35.072Z,2.73
2023-04-02T05:21:35.077Z,2.70
2023-04-02T05:22:35.087Z,2.72
2023-04-02T05:23:35.094Z,2.75
2023-04-02T05:24:35.105Z,2.62
2023-04-02T05:25:35.289Z,2.72
2023-04-02T05:26:35.120Z,2.72
2023-04-02T05:27:35.129Z,2.79
2023-04-02T05:28:35.141Z,2.90
2023-04-02T05:29:35.150Z,2.82
2023-04-02T05:30:35.161Z,2.80
2023-04-02T05:31:35.225Z,2.80
2023-04-02T05:32:35.194Z,2.80
2023-04-02T05:33:35.185Z,2.87
2023-04-02T05:34:35.191Z,2.80
2023-04-02T05:35:35.369Z,2.83
2023-04-02T05:36:35.213Z,2.93
2023-04-02T05:37:35.225Z,2.83
2023-04-02T05:38:35.232Z,2.82
2023-04-02T05:39:35.240Z,2.85
2023-04-02T05:40:35.249Z,2.83
2023-04-02T05:41:35.267Z,2.83
2023-04-02T05:42:35.268Z,2.82
2023-04-02T05:43:35.279Z,2.91
2023-04-02T05:44:35.833Z,2.98
2023-04-02T05:45:35.505Z,2.91
2023-04-02T05:46:35.357Z,2.95
2023-04-02T05:47:35.338Z,2.95
2023-04-02T05:48:35.323Z,2.93
2023-04-02T05:49:35.342Z,2.93
2023-04-02T05:50:35.344Z,3.00
2023-04-02T05:51:35.350Z,2.94
2023-04-02T05:52:35.363Z,2.97
2023-04-02T05:53:35.392Z,2.98
2023-04-02T05:54:35.395Z,3.06
2023-04-02T05:55:35.652Z,3.00
2023-04-02T05:56:35.397Z,3.00
2023-04-02T05:57:44.614Z,3.05
2023-04-02T05:58:36.759Z,3.09
2023-04-02T05:59:35.433Z,3.09
2023-04-02T06:00:35.450Z,3.05
2023-04-02T06:01:35.462Z,3.03
2023-04-02T06:02:35.506Z,3.08
2023-04-02T06:03:35.512Z,3.06
2023-04-02T06:04:35.478Z,3.12
2023-04-02T06:05:35.673Z,3.05
2023-04-02T06:06:35.489Z,3.08
2023-04-02T06:07:35.507Z,2.98
2023-04-02T06:08:35.531Z,3.01
2023-04-02T06:09:35.519Z,3.08
2023-04-02T06:10:35.536Z,3.11
2023-04-02T06:11:35.539Z,3.08
2023-04-02T06:12:35.547Z,3.05
2023-04-02T06:13:35.553Z,3.16
2023-04-02T06:14:35.562Z,3.03
2023-04-02T06:15:35.795Z,3.05
2023-04-02T06:16:35.765Z,3.12
2023-04-02T06:17:35.697Z,3.16
2023-04-02T06:18:35.611Z,3.13
2023-04-02T06:19:35.615Z,3.16
2023-04-02T06:20:35.621Z,3.15
2023-04-02T06:21:35.629Z,3.11
2023-04-02T06:22:35.654Z,3.08
2023-04-02T06:23:35.647Z,3.22
2023-04-02T06:24:35.656Z,3.24
2023-04-02T06:25:35.769Z,3.24
2023-04-02T06:26:35.686Z,3.24
2023-04-02T06:27:35.688Z,3.18
2023-04-02T06:28:35.696Z,3.33
2023-04-02T06:29:35.716Z,3.30
2023-04-02T06:30:35.754Z,3.24
2023-04-02T06:31:35.727Z,3.30
2023-04-02T06:32:35.781Z,3.34
2023-04-02T06:33:35.746Z,3.30
2023-04-02T06:34:35.756Z,3.26
2023-04-02T06:35:35.949Z,3.36
2023-04-02T06:36:35.775Z,3.41
2023-04-02T06:37:35.792Z,3.37
2023-04-02T06:38:35.807Z,3.50
2023-04-02T06:39:35.810Z,3.52
2023-04-02T06:40:35.814Z,3.50
2023-04-02T06:41:35.824Z,3.53
2023-04-02T06:42:35.843Z,3.55
2023-04-02T06:43:35.845Z,3.67
2023-04-02T06:44:35.869Z,3.71
2023-04-02T06:45:36.129Z,3.71
2023-04-02T06:46:35.968Z,3.84
2023-04-02T06:47:35.928Z,3.88
2023-04-02T06:48:35.907Z,3.85
2023-04-02T06:49:35.908Z,3.94
2023-04-02T06:50:35.930Z,4.02
2023-04-02T06:51:35.931Z,4.04
2023-04-02T06:52:35.943Z,4.06
2023-04-02T06:53:35.951Z,4.03
2023-04-02T06:54:35.968Z,4.04
2023-04-02T06:55:36.186Z,4.09
2023-04-02T06:56:35.982Z,4.07
2023-04-02T06:57:36.067Z,4.06
2023-04-02T06:58:36.011Z,4.04
2023-04-02T06:59:36.032Z,4.10
2023-04-02T07:00:36.070Z,4.04
2023-04-02T07:01:36.112Z,4.18
2023-04-02T07:02:36.079Z,4.22
2023-04-02T07:03:36.055Z,4.25
2023-04-02T07:04:36.118Z,4.30
2023-04-02T07:05:36.254Z,4.32
2023-04-02T07:06:36.123Z,4.38
2023-04-02T07:07:36.184Z,4.27
2023-04-02T07:08:36.107Z,4.38
2023-04-02T07:09:36.125Z,4.40
2023-04-02T07:10:36.139Z,4.40
2023-04-02T07:11:36.136Z,4.49
2023-04-02T07:12:36.158Z,4.48
2023-04-02T07:13:36.159Z,4.60
2023-04-02T07:14:36.166Z,4.57
2023-04-02T07:15:36.440Z,4.74
2023-04-02T07:16:36.191Z,4.74
2023-04-02T07:17:36.222Z,4.84
2023-04-02T07:18:36.211Z,4.95
2023-04-02T07:19:36.223Z,4.98
2023-04-02T07:20:36.235Z,5.07
2023-04-02T07:21:36.258Z,5.08
2023-04-02T07:22:36.263Z,5.04
2023-04-02T07:23:36.269Z,5.08
2023-04-02T07:24:36.464Z,5.07
2023-04-02T07:25:36.548Z,5.08
2023-04-02T07:26:36.304Z,5.08
2023-04-02T07:27:36.317Z,5.15
2023-04-02T07:28:36.331Z,5.18
2023-04-02T07:29:36.339Z,5.31
2023-04-02T07:30:36.352Z,5.34
2023-04-02T07:31:36.409Z,5.33
2023-04-02T07:32:36.418Z,5.33
2023-04-02T07:33:36.386Z,5.31
2023-04-02T07:34:36.434Z,5.23
2023-04-02T07:35:36.560Z,5.28
2023-04-02T07:36:36.428Z,5.29
2023-04-02T07:37:36.436Z,5.28
2023-04-02T07:38:36.446Z,5.36
2023-04-02T07:39:38.338Z,5.49
2023-04-02T07:40:36.470Z,5.61
2023-04-02T07:41:36.484Z,5.70
2023-04-02T07:42:36.497Z,5.83
2023-04-02T07:43:36.507Z,5.84
2023-04-02T07:44:36.517Z,5.83
2023-04-02T07:45:36.828Z,5.72
2023-04-02T07:46:36.563Z,5.73
2023-04-02T07:47:36.591Z,5.73
2023-04-02T07:48:36.579Z,5.79
2023-04-02T07:49:36.580Z,5.64
2023-04-02T07:50:36.602Z,5.74
2023-04-02T07:51:36.606Z,5.81
2023-04-02T07:52:37.605Z,5.95
2023-04-02T07:53:36.630Z,6.13
2023-04-02T07:54:36.642Z,6.19
2023-04-02T07:55:36.879Z,6.10
2023-04-02T07:56:36.667Z,6.15
2023-04-02T07:57:36.682Z,6.15
2023-04-02T07:58:36.696Z,6.13
2023-04-02T07:59:36.703Z,6.19
2023-04-02T08:00:36.716Z,6.06
2023-04-02T08:01:36.730Z,6.01
2023-04-02T08:02:36.877Z,6.10
2023-04-02T08:03:36.845Z,5.99
2023-04-02T08:04:36.765Z,6.01
2023-04-02T08:05:36.961Z,5.92
2023-04-02T08:06:36.793Z,5.99
2023-04-02T08:07:36.804Z,5.92
2023-04-02T08:08:36.816Z,5.94
2023-04-02T08:09:36.833Z,5.87
2023-04-02T08:10:36.838Z,6.01
2023-04-02T08:11:36.852Z,5.97
2023-04-02T08:12:36.879Z,5.94
2023-04-02T08:13:36.882Z,5.92
2023-04-02T08:14:36.895Z,5.88
2023-04-02T08:15:37.148Z,5.98
2023-04-02T08:16:36.988Z,5.84
2023-04-02T08:17:36.986Z,5.87
2023-04-02T08:18:36.949Z,5.90
2023-04-02T08:19:47.776Z,5.88
2023-04-02T08:20:36.966Z,5.88
2023-04-02T08:21:36.978Z,5.84
2023-04-02T08:22:36.992Z,5.87
2023-04-02T08:23:37.009Z,5.84
2023-04-02T08:24:37.014Z,5.74
2023-04-02T08:25:37.202Z,5.84
2023-04-02T08:26:37.041Z,5.80
2023-04-02T08:27:37.057Z,5.80
2023-04-02T08:28:37.064Z,5.73
2023-04-02T08:29:37.079Z,5.77
2023-04-02T08:30:37.112Z,5.73
2023-04-02T08:31:37.102Z,5.87
2023-04-02T08:32:37.148Z,5.84
2023-04-02T08:33:37.126Z,5.72
2023-04-02T08:34:37.142Z,5.87
2023-04-02T08:35:37.380Z,5.77
2023-04-02T08:36:37.168Z,5.80
2023-04-02T08:37:37.181Z,5.90
2023-04-02T08:38:37.191Z,5.87
2023-04-02T08:39:37.197Z,5.94
2023-04-02T08:40:37.210Z,5.88
2023-04-02T08:41:37.227Z,5.83
2023-04-02T08:42:37.234Z,5.99
2023-04-02T08:43:37.247Z,6.06
2023-04-02T08:44:37.265Z,5.97
2023-04-02T08:45:37.274Z,6.07
2023-04-02T08:46:37.343Z,6.02
2023-04-02T08:47:37.358Z,6.01
2023-04-02T08:48:37.318Z,6.06
2023-04-02T08:49:37.338Z,6.06
2023-04-02T08:50:37.342Z,6.09
2023-04-02T08:51:37.343Z,6.02
2023-04-02T08:52:37.357Z,6.06
2023-04-02T08:53:37.377Z,6.09
2023-04-02T08:54:37.393Z,6.19
2023-04-02T08:55:37.554Z,6.19
2023-04-02T08:56:37.421Z,6.20
2023-04-02T08:57:37.439Z,6.16
2023-04-02T08:58:37.455Z,6.16
2023-04-02T08:59:37.443Z,6.09
2023-04-02T09:00:38.058Z,6.13
2023-04-02T09:01:37.498Z,6.19
2023-04-02T09:02:37.533Z,6.17
2023-04-02T09:03:37.493Z,6.15
2023-04-02T09:04:37.570Z,6.16
2023-04-02T09:05:37.817Z,6.12
2023-04-02T09:06:37.539Z,6.15
2023-04-02T09:07:37.544Z,6.26
2023-04-02T09:08:37.568Z,6.13
2023-04-02T09:09:37.574Z,6.25
2023-04-02T09:10:37.584Z,6.13
2023-04-02T09:11:37.592Z,6.22
2023-04-02T09:12:37.606Z,6.19
2023-04-02T09:13:37.630Z,6.13
2023-04-02T09:14:37.631Z,6.28
2023-04-02T09:15:37.939Z,6.26
2023-04-02T09:16:37.658Z,6.34
2023-04-02T09:17:50.488Z,6.39
2023-04-02T09:18:37.764Z,6.39
2023-04-02T09:19:37.706Z,6.38
2023-04-02T09:20:37.724Z,6.25
2023-04-02T09:21:37.726Z,6.20
2023-04-02T09:22:37.735Z,6.28
2023-04-02T09:23:37.749Z,6.29
2023-04-02T09:24:37.797Z,6.20
2023-04-02T09:25:37.974Z,6.15
2023-04-02T09:26:37.783Z,6.15
2023-04-02T09:27:37.798Z,6.05
2023-04-02T09:28:37.809Z,6.07
2023-04-02T09:29:37.825Z,5.99
2023-04-02T09:30:37.837Z,5.90
2023-04-02T09:31:37.877Z,5.91
2023-04-02T09:32:37.939Z,5.87
2023-04-02T09:33:37.870Z,5.84
2023-04-02T09:34:37.893Z,5.76
2023-04-02T09:35:38.059Z,5.77
2023-04-02T09:36:37.920Z,5.74
2023-04-02T09:37:37.929Z,5.61
2023-04-02T09:38:37.929Z,5.62
2023-04-02T09:39:37.942Z,5.67
2023-04-02T09:40:37.956Z,5.64
2023-04-02T09:41:37.976Z,5.58
2023-04-02T09:42:37.982Z,5.54
2023-04-02T09:43:38.053Z,5.56
2023-04-02T09:44:38.001Z,5.61
2023-04-02T09:45:38.018Z,5.61
2023-04-02T09:46:38.117Z,5.51
2023-04-02T09:47:38.821Z,5.59
2023-04-02T09:48:38.057Z,5.64
2023-04-02T09:49:38.067Z,5.56
2023-04-02T09:50:38.073Z,5.56
2023-04-02T09:51:38.083Z,5.65
2023-04-02T09:52:38.094Z,5.65
2023-04-02T09:53:38.716Z,5.58
2023-04-02T09:54:38.127Z,5.61
2023-04-02T09:55:38.128Z,5.58
2023-04-02T09:56:38.144Z,5.62
2023-04-02T09:57:38.164Z,5.59
2023-04-02T09:58:38.160Z,5.62
2023-04-02T09:59:38.170Z,5.79
2023-04-02T10:00:38.186Z,5.72
2023-04-02T10:01:38.261Z,5.84
2023-04-02T10:02:38.226Z,5.87
2023-04-02T10:03:38.233Z,5.91
2023-04-02T10:04:38.247Z,5.94
2023-04-02T10:05:41.245Z,5.95
2023-04-02T10:06:38.250Z,5.92
2023-04-02T10:07:38.275Z,6.05
2023-04-02T10:08:38.272Z,6.13
2023-04-02T10:09:38.288Z,6.17
2023-04-02T10:10:38.294Z,6.13
2023-04-02T10:12:38.316Z,6.20
2023-04-02T10:13:38.335Z,6.31
2023-04-02T10:14:38.341Z,6.44
2023-04-02T10:15:38.523Z,6.35
2023-04-02T10:16:38.430Z,6.43
2023-04-02T10:17:38.397Z,6.41
2023-04-02T10:18:38.393Z,6.49
2023-04-02T10:19:38.398Z,6.43
2023-04-02T10:20:50.597Z,6.57
2023-04-02T10:21:38.434Z,6.62
2023-04-02T10:22:38.435Z,6.77
2023-04-02T10:23:38.452Z,6.71
2023-04-02T10:24:38.457Z,6.80
2023-04-02T10:25:38.470Z,6.87
2023-04-02T10:26:38.480Z,6.95
2023-04-02T10:27:38.503Z,6.92
2023-04-02T10:28:38.506Z,7.10
2023-04-02T10:29:38.520Z,7.13
2023-04-02T10:30:38.570Z,7.25
2023-04-02T10:31:38.542Z,7.32
2023-04-02T10:32:38.653Z,7.29
2023-04-02T10:33:38.576Z,7.46
2023-04-02T10:34:38.870Z,7.55
2023-04-02T10:35:38.818Z,7.64
2023-04-02T10:36:38.607Z,7.67
2023-04-02T10:37:38.620Z,7.77
2023-04-02T10:38:38.634Z,7.83
2023-04-02T10:39:38.649Z,7.99
2023-04-02T10:40:38.663Z,8.08
2023-04-02T10:41:38.673Z,8.18
2023-04-02T10:42:38.693Z,8.27
2023-04-02T10:43:38.710Z,8.31
2023-04-02T10:44:38.725Z,8.27
2023-04-02T10:45:38.846Z,8.34
2023-04-02T10:46:38.839Z,8.46
2023-04-02T10:47:38.806Z,8.42
2023-04-02T10:48:38.775Z,8.66
2023-04-02T10:49:38.817Z,8.60
2023-04-02T10:50:38.800Z,8.54
2023-04-02T10:51:38.820Z,8.53
2023-04-02T10:52:38.832Z,8.63
2023-04-02T10:53:38.849Z,8.72
2023-04-02T10:54:38.867Z,8.61
2023-04-02T10:55:38.881Z,8.46
2023-04-02T10:56:50.010Z,8.60
2023-04-02T10:57:39.031Z,8.53
2023-04-02T10:58:38.928Z,8.45
2023-04-02T10:59:38.944Z,8.57
2023-04-02T11:00:38.956Z,8.49
2023-04-02T11:01:39.004Z,8.54
2023-04-02T11:02:39.126Z,8.53
2023-04-02T11:03:39.099Z,8.50
2023-04-02T11:04:39.020Z,8.44
2023-04-02T11:05:39.036Z,8.46
2023-04-02T11:06:39.052Z,8.41
2023-04-02T11:07:39.073Z,8.45
2023-04-02T11:08:39.091Z,8.42
2023-04-02T11:09:39.105Z,8.46
2023-04-02T11:10:39.116Z,8.44
2023-04-02T11:11:39.130Z,8.46
2023-04-02T11:12:41.753Z,8.56
2023-04-02T11:13:39.165Z,8.59
2023-04-02T11:14:39.194Z,8.52
2023-04-02T11:15:39.334Z,8.60
2023-04-02T11:16:43.383Z,8.61
2023-04-02T11:17:39.247Z,8.66
2023-04-02T11:18:39.242Z,8.66
2023-04-02T11:19:39.256Z,8.66
2023-04-02T11:20:39.271Z,8.77
2023-04-02T11:21:51.015Z,8.84
2023-04-02T11:22:39.301Z,8.74
2023-04-02T11:23:39.315Z,8.84
2023-04-02T11:24:39.341Z,8.95
2023-04-02T11:25:39.346Z,8.95
2023-04-02T11:26:39.370Z,8.99
2023-04-02T11:27:39.378Z,9.09
2023-04-02T11:28:39.394Z,9.02
2023-04-02T11:29:39.411Z,9.13
2023-04-02T11:30:39.422Z,9.13
2023-04-02T11:31:39.470Z,9.13
2023-04-02T11:32:39.596Z,9.05
2023-04-02T11:33:41.376Z,9.11
2023-04-02T11:34:39.488Z,8.97
2023-04-02T11:35:39.672Z,9.02
2023-04-02T11:36:39.528Z,8.87
2023-04-02T11:37:39.543Z,8.86
2023-04-02T11:38:39.547Z,8.87
2023-04-02T11:39:39.563Z,8.93
2023-04-02T11:40:39.583Z,8.82
2023-04-02T11:41:39.595Z,8.84
2023-04-02T11:42:39.608Z,8.87
2023-04-02T11:43:39.626Z,8.96
2023-04-02T11:44:39.643Z,8.97
2023-04-02T11:45:52.029Z,8.99
2023-04-02T11:46:39.701Z,9.03
2023-04-02T11:47:39.790Z,8.95
2023-04-02T11:48:39.701Z,8.99
2023-04-02T11:49:39.770Z,8.97
2023-04-02T11:50:39.735Z,8.90
2023-04-02T11:51:39.749Z,8.89
2023-04-02T11:52:39.773Z,8.82
2023-04-02T11:53:39.777Z,8.79
2023-04-02T11:54:39.790Z,8.87
2023-04-02T11:55:39.998Z,8.82
2023-04-02T11:56:39.820Z,8.75
2023-04-02T11:57:39.899Z,8.77
2023-04-02T11:58:39.851Z,8.82
2023-04-02T11:59:39.862Z,8.79
2023-04-02T12:00:39.880Z,8.92
2023-04-02T12:01:39.918Z,8.87
2023-04-02T12:02:39.969Z,8.95
2023-04-02T12:03:39.922Z,9.08
2023-04-02T12:04:39.949Z,9.13
2023-04-02T12:05:40.014Z,9.18
2023-04-02T12:06:39.981Z,9.27
2023-04-02T12:07:39.979Z,9.29
2023-04-02T12:08:47.523Z,9.34
2023-04-02T12:09:40.016Z,9.44
2023-04-02T12:10:40.080Z,9.47
2023-04-02T12:11:40.063Z,9.51
2023-04-02T12:12:40.085Z,9.62
2023-04-02T12:13:40.087Z,9.73
2023-04-02T12:14:40.088Z,9.74
2023-04-02T12:15:40.101Z,9.72
2023-04-02T12:16:40.178Z,9.72
2023-04-02T12:17:40.170Z,9.73
2023-04-02T12:18:40.155Z,9.84
2023-04-02T12:19:40.172Z,9.97
2023-04-02T12:20:40.191Z,9.97
2023-04-02T12:21:40.197Z,9.97
2023-04-02T12:22:40.222Z,9.94
2023-04-02T12:23:40.232Z,9.99
2023-04-02T12:24:40.245Z,10.02
2023-04-02T12:25:40.276Z,10.10
2023-04-02T12:26:40.278Z,10.06
2023-04-02T12:27:40.295Z,10.02
2023-04-02T12:28:40.310Z,10.12
2023-04-02T12:29:40.328Z,10.12
2023-04-02T12:30:40.373Z,10.20
2023-04-02T12:31:40.367Z,10.27
2023-04-02T12:32:40.390Z,10.27
2023-04-02T12:33:40.402Z,10.25
2023-04-02T12:34:40.406Z,10.30
2023-04-02T12:35:40.476Z,10.23
2023-04-02T12:36:40.443Z,10.24
2023-04-02T12:37:40.459Z,10.20
2023-04-02T12:38:40.470Z,10.18
2023-04-02T12:39:40.489Z,10.17
2023-04-02T12:40:40.509Z,10.27
2023-04-02T12:41:40.518Z,10.10
2023-04-02T12:42:40.536Z,10.12
2023-04-02T12:43:40.557Z,10.15
2023-04-02T12:44:40.570Z,10.00
2023-04-02T12:45:40.584Z,10.12
2023-04-02T12:46:40.708Z,10.00
2023-04-02T12:47:40.667Z,10.00
2023-04-02T12:48:40.641Z,9.94
2023-04-02T12:49:40.645Z,9.94
2023-04-02T12:50:40.664Z,9.94
2023-04-02T12:51:40.679Z,10.02
2023-04-02T12:52:40.696Z,9.92
2023-04-02T12:53:40.716Z,9.92
2023-04-02T12:54:40.726Z,9.92
2023-04-02T12:55:40.745Z,9.95
2023-04-02T12:56:40.767Z,9.94
2023-04-02T12:57:41.018Z,9.90
2023-04-02T12:58:40.793Z,9.91
2023-04-02T12:59:40.805Z,9.94
2023-04-02T13:00:40.823Z,10.02
2023-04-02T13:01:41.021Z,9.92
2023-04-02T13:02:40.875Z,9.97
2023-04-02T13:03:40.937Z,9.97
2023-04-02T13:04:40.887Z,9.91
2023-04-02T13:05:40.901Z,9.82
2023-04-02T13:06:40.924Z,9.88
2023-04-02T13:07:40.934Z,9.91
2023-04-02T13:08:40.951Z,9.90
2023-04-02T13:09:40.973Z,9.85
2023-04-02T13:10:40.984Z,9.90
2023-04-02T13:11:41.012Z,9.90
2023-04-02T13:12:41.015Z,9.84
2023-04-02T13:13:41.032Z,9.73
2023-04-02T13:14:41.044Z,9.63
2023-04-02T13:15:41.140Z,9.51
2023-04-02T13:16:41.182Z,9.47
2023-04-02T13:17:41.141Z,9.34
2023-04-02T13:18:41.114Z,9.33